Time;durP1;ratioP1;P1;durP2;ratioP2;P2;SDS_P1;SDS_P2;PMS_P1;PMS_P2;Temp;Humidity;BMP_temperature;BMP_pressure;BME280_temperature;BME280_humidity;BME280_pressure;Samples;Min_cycle;Max_cycle;Signal;HPM_P1;HPM_P2
2023/04/26 00:00:45;;;;;;;66.30;5.70;;;5.40;98.40;;;;;;5038686;28;20177;-85
2023/04/26 00:03:14;;;;;;;67.68;6.22;;;5.30;99.90;;;;;;5040663;28;20176;-85
2023/04/26 00:05:39;;;;;;;67.03;4.78;;;5.30;99.90;;;;;;5041888;28;20185;-85
2023/04/26 00:08:05;;;;;;;69.27;4.87;;;5.30;99.90;;;;;;5041297;28;20165;-84
2023/04/26 00:10:31;;;;;;;67.47;5.50;;;5.20;99.90;;;;;;5039640;28;20408;-85
2023/04/26 00:12:57;;;;;;;67.43;5.70;;;5.20;99.90;;;;;;5040267;28;20168;-85
2023/04/26 00:15:22;;;;;;;69.90;6.60;;;5.20;99.90;;;;;;5041371;28;20181;-84
2023/04/26 00:17:49;;;;;;;68.60;6.67;;;5.00;99.90;;;;;;5023959;28;20169;-85
2023/04/26 00:20:20;;;;;;;68.78;7.43;;;5.00;99.90;;;;;;5042029;28;20158;-85
2023/04/26 00:22:46;;;;;;;66.90;6.82;;;4.90;99.90;;;;;;5041145;28;20161;-85
2023/04/26 00:25:12;;;;;;;68.33;8.77;;;4.90;99.90;;;;;;5040393;28;20688;-84
2023/04/26 00:27:38;;;;;;;71.40;10.52;;;4.90;99.90;;;;;;5041285;28;20188;-85
2023/04/26 00:30:05;;;;;;;69.33;10.67;;;4.80;99.90;;;;;;5041230;28;20165;-85
2023/04/26 00:32:34;;;;;;;69.82;10.65;;;4.80;99.90;;;;;;5041032;28;20408;-85
2023/04/26 00:35:02;;;;;;;72.20;10.68;;;4.70;99.90;;;;;;5041214;28;20234;-85
2023/04/26 00:37:27;;;;;;;75.30;9.82;;;4.70;99.90;;;;;;5041423;28;20524;-85
2023/04/26 00:39:53;;;;;;;68.07;10.60;;;4.70;99.90;;;;;;5041030;28;20170;-85
2023/04/26 00:42:19;;;;;;;68.50;10.87;;;4.70;99.90;;;;;;5040114;28;20180;-85
2023/04/26 00:44:45;;;;;;;71.23;8.70;;;4.70;99.90;;;;;;5040816;28;20177;-85
2023/04/26 00:47:10;;;;;;;69.40;9.03;;;4.70;99.90;;;;;;5038971;28;20447;-85
2023/04/26 00:49:36;;;;;;;69.03;8.83;;;4.60;99.90;;;;;;5038096;28;20171;-84
2023/04/26 00:52:02;;;;;;;73.80;11.60;;;4.50;99.90;;;;;;5038559;28;20169;-84
2023/04/26 00:54:28;;;;;;;72.10;12.17;;;4.50;99.90;;;;;;5039613;28;20189;-85
2023/04/26 00:56:54;;;;;;;74.88;17.42;;;4.40;99.90;;;;;;5040795;28;20173;-84
2023/04/26 00:59:23;;;;;;;71.87;15.00;;;4.40;99.90;;;;;;5039675;28;20257;-84
2023/04/26 01:01:48;;;;;;;76.57;19.65;;;4.30;99.90;;;;;;5039365;28;20165;-84
2023/04/26 01:04:15;;;;;;;70.97;13.27;;;4.30;99.90;;;;;;5040706;28;20644;-84
2023/04/26 01:06:41;;;;;;;72.45;15.35;;;4.20;99.90;;;;;;5038066;28;20201;-84
2023/04/26 01:09:08;;;;;;;71.07;16.50;;;4.10;99.90;;;;;;5039361;28;20197;-84
2023/04/26 01:11:35;;;;;;;73.80;17.30;;;4.20;99.90;;;;;;5038663;28;20181;-84
2023/04/26 01:14:02;;;;;;;72.07;16.33;;;4.10;99.90;;;;;;5038742;28;20248;-84
2023/04/26 01:16:29;;;;;;;73.05;15.18;;;4.10;99.90;;;;;;5039418;28;20197;-84
2023/04/26 01:18:55;;;;;;;70.82;17.67;;;4.00;99.90;;;;;;5040270;28;20158;-84
2023/04/26 01:21:23;;;;;;;72.90;17.40;;;4.00;99.90;;;;;;5037625;28;20180;-84
2023/04/26 01:23:50;;;;;;;74.10;18.63;;;4.00;99.90;;;;;;5040645;28;20181;-84
2023/04/26 01:26:16;;;;;;;74.25;19.27;;;4.00;99.90;;;;;;5039099;28;20192;-84
2023/04/26 01:28:41;;;;;;;71.90;19.75;;;4.00;99.90;;;;;;5038629;28;20162;-84
2023/04/26 01:31:07;;;;;;;69.90;18.90;;;4.00;99.90;;;;;;5039782;28;20157;-84
2023/04/26 01:33:33;;;;;;;70.83;20.60;;;4.00;99.90;;;;;;5038508;28;20221;-84
2023/04/26 01:36:02;;;;;;;70.97;17.87;;;4.00;99.90;;;;;;5039241;28;20169;-84
2023/04/26 01:38:27;;;;;;;72.22;19.40;;;3.90;99.90;;;;;;5037517;28;20257;-84
2023/04/26 01:40:53;;;;;;;73.13;23.17;;;3.90;99.90;;;;;;5039308;28;20191;-84
2023/04/26 01:43:20;;;;;;;71.43;18.87;;;3.90;99.90;;;;;;5042266;28;20169;-84
2023/04/26 01:45:49;;;;;;;69.97;20.15;;;3.90;99.90;;;;;;5041741;28;20214;-84
2023/04/26 01:48:15;;;;;;;70.43;19.25;;;3.90;99.90;;;;;;5039847;28;20165;-84
2023/04/26 01:50:40;;;;;;;74.10;19.03;;;3.80;99.90;;;;;;5041375;28;20176;-84
2023/04/26 01:53:06;;;;;;;70.20;16.17;;;3.70;99.90;;;;;;5040110;28;20755;-84
2023/04/26 01:55:33;;;;;;;73.53;18.37;;;3.80;99.90;;;;;;5039640;28;20169;-84
2023/04/26 01:57:59;;;;;;;76.93;16.15;;;3.70;99.90;;;;;;5039076;28;20165;-84
2023/04/26 02:00:26;;;;;;;72.10;20.60;;;3.70;99.90;;;;;;5039048;28;20172;-84
2023/04/26 02:02:55;;;;;;;70.82;18.10;;;3.70;99.90;;;;;;5039201;28;20426;-84
2023/04/26 02:05:22;;;;;;;69.25;16.55;;;3.70;99.90;;;;;;5037823;28;20207;-84
2023/04/26 02:07:47;;;;;;;71.40;19.90;;;3.60;99.90;;;;;;5037820;28;20192;-84
2023/04/26 02:10:13;;;;;;;70.13;17.40;;;3.50;99.90;;;;;;5039386;28;20177;-84
2023/04/26 02:12:39;;;;;;;70.63;18.40;;;3.50;99.90;;;;;;5130380;22;20192;-85
2023/04/26 02:15:05;;;;;;;73.80;18.30;;;3.50;99.90;;;;;;5095759;22;20240;-85
2023/04/26 02:17:31;;;;;;;71.13;20.48;;;3.40;99.90;;;;;;5025171;28;20273;-85
2023/04/26 02:19:57;;;;;;;72.32;19.35;;;3.40;99.90;;;;;;5026108;28;20169;-85
2023/04/26 02:22:26;;;;;;;68.90;15.90;;;3.40;99.90;;;;;;5023746;28;20227;-85
2023/04/26 02:24:51;;;;;;;76.78;20.38;;;3.40;99.90;;;;;;5024268;28;20193;-85
2023/04/26 02:27:18;;;;;;;71.57;18.20;;;3.40;99.90;;;;;;5023019;28;20166;-85
2023/04/26 02:29:45;;;;;;;71.80;17.60;;;3.30;99.90;;;;;;5023838;28;20216;-85
2023/04/26 02:32:12;;;;;;;69.53;17.08;;;3.30;99.90;;;;;;5024152;28;20168;-85
2023/04/26 02:34:37;;;;;;;75.30;20.25;;;3.30;99.90;;;;;;5024172;28;20194;-85
2023/04/26 02:37:03;;;;;;;71.67;17.43;;;3.20;99.90;;;;;;5023714;28;20229;-85
2023/04/26 02:39:30;;;;;;;72.87;18.53;;;3.30;99.90;;;;;;5023794;28;20401;-85
2023/04/26 02:41:56;;;;;;;70.53;17.40;;;3.30;99.90;;;;;;5024953;28;20158;-85
2023/04/26 02:44:22;;;;;;;78.40;21.13;;;3.30;99.90;;;;;;5023093;28;20186;-85
2023/04/26 02:46:47;;;;;;;72.37;16.00;;;3.20;99.90;;;;;;5024584;28;20594;-85
2023/04/26 02:49:16;;;;;;;71.83;16.50;;;3.20;99.90;;;;;;5024786;28;20162;-85
2023/04/26 02:51:42;;;;;;;76.05;17.73;;;3.20;99.90;;;;;;5024434;28;20173;-85
2023/04/26 02:54:07;;;;;;;71.67;16.43;;;3.20;99.90;;;;;;5023412;28;20185;-85
2023/04/26 02:56:33;;;;;;;72.87;17.90;;;3.20;99.90;;;;;;5020387;28;20165;-85
2023/04/26 02:58:58;;;;;;;71.70;17.03;;;3.10;99.90;;;;;;5024080;28;20165;-85
2023/04/26 03:01:24;;;;;;;75.73;17.90;;;3.10;99.90;;;;;;5023447;28;20633;-85
2023/04/26 03:03:50;;;;;;;72.63;20.93;;;3.20;99.90;;;;;;5024404;28;20557;-85
2023/04/26 03:06:16;;;;;;;70.55;18.73;;;3.10;99.90;;;;;;5023056;28;20197;-85
2023/04/26 03:08:42;;;;;;;73.00;16.00;;;3.10;99.90;;;;;;5024008;28;20162;-85
2023/04/26 03:11:08;;;;;;;73.00;15.47;;;3.10;99.90;;;;;;5023532;28;20218;-85
2023/04/26 03:13:33;;;;;;;72.03;19.60;;;3.10;99.90;;;;;;5021629;28;20205;-85
2023/04/26 03:16:02;;;;;;;72.23;17.73;;;3.10;99.90;;;;;;5024103;28;20154;-85
2023/04/26 03:18:33;;;;;;;74.13;16.63;;;3.10;99.90;;;;;;5024008;28;20165;-85
2023/04/26 03:20:58;;;;;;;72.40;18.88;;;3.10;99.90;;;;;;5023881;28;20158;-85
2023/04/26 03:23:24;;;;;;;71.27;15.83;;;3.10;99.90;;;;;;5020915;28;20190;-85
2023/04/26 03:25:50;;;;;;;70.77;16.00;;;3.20;99.90;;;;;;5023465;28;20192;-85
2023/04/26 03:28:16;;;;;;;71.70;14.32;;;3.30;99.90;;;;;;5020654;28;20432;-85
2023/04/26 03:30:42;;;;;;;73.27;16.43;;;3.40;99.90;;;;;;5024870;28;20184;-85
2023/04/26 03:33:08;;;;;;;74.83;19.37;;;3.50;99.90;;;;;;5023011;28;20405;-85
2023/04/26 03:35:33;;;;;;;77.05;17.65;;;3.60;99.90;;;;;;5022224;28;20260;-85
2023/04/26 03:37:59;;;;;;;75.63;14.90;;;3.60;99.90;;;;;;5020204;28;20201;-85
2023/04/26 03:40:25;;;;;;;73.33;19.73;;;3.50;99.90;;;;;;5022237;28;20172;-85
2023/04/26 03:42:50;;;;;;;81.00;17.70;;;3.40;99.90;;;;;;5023275;28;20170;-85
2023/04/26 03:45:16;;;;;;;77.37;16.53;;;3.40;99.90;;;;;;5023690;28;20198;-85
2023/04/26 03:47:42;;;;;;;79.77;16.93;;;3.40;99.90;;;;;;5023330;28;20170;-85
2023/04/26 03:50:08;;;;;;;84.57;18.17;;;3.30;99.90;;;;;;5022596;28;20166;-85
2023/04/26 03:52:33;;;;;;;76.70;16.77;;;3.20;99.90;;;;;;5023493;28;20166;-85
2023/04/26 03:55:02;;;;;;;75.70;17.57;;;3.20;99.90;;;;;;5023631;28;20193;-85
2023/04/26 03:57:31;;;;;;;77.30;18.02;;;3.10;99.90;;;;;;5024369;28;20162;-85
2023/04/26 03:59:57;;;;;;;75.63;16.35;;;3.10;99.90;;;;;;5023587;28;20162;-85
2023/04/26 04:02:25;;;;;;;77.63;15.57;;;3.00;99.90;;;;;;5023460;28;20174;-85
2023/04/26 04:04:51;;;;;;;74.32;15.85;;;3.10;99.90;;;;;;5023514;28;20444;-85
2023/04/26 04:07:17;;;;;;;76.87;15.60;;;3.10;99.90;;;;;;5023633;28;20561;-85
2023/04/26 04:09:43;;;;;;;76.97;15.65;;;3.00;99.90;;;;;;5019841;28;20173;-85
2023/04/26 04:12:09;;;;;;;72.53;17.00;;;3.00;99.90;;;;;;5023845;28;20185;-85
2023/04/26 04:14:34;;;;;;;72.87;14.33;;;2.90;99.90;;;;;;5024402;28;20290;-85
2023/04/26 04:17:00;;;;;;;74.83;15.17;;;2.80;99.90;;;;;;5019298;28;20173;-85
2023/04/26 04:19:26;;;;;;;77.70;14.70;;;2.80;99.90;;;;;;5023803;28;20178;-85
2023/04/26 04:21:52;;;;;;;82.50;14.00;;;2.80;99.90;;;;;;5023645;28;20267;-85
2023/04/26 04:24:18;;;;;;;72.47;14.77;;;2.90;99.90;;;;;;5022839;28;20258;-85
2023/04/26 04:26:44;;;;;;;71.55;14.45;;;2.80;99.90;;;;;;5022299;28;20221;-85
2023/04/26 04:29:10;;;;;;;71.40;14.07;;;2.90;99.90;;;;;;5022873;28;20166;-85
2023/04/26 04:31:36;;;;;;;73.40;14.37;;;2.90;99.90;;;;;;5022074;28;20170;-85
2023/04/26 04:34:01;;;;;;;73.77;15.00;;;2.90;99.90;;;;;;5023537;28;20232;-85
2023/04/26 04:36:27;;;;;;;77.93;14.47;;;2.90;99.90;;;;;;5023397;28;20507;-85
2023/04/26 04:38:52;;;;;;;73.93;14.70;;;2.80;99.90;;;;;;5019659;28;20201;-85
2023/04/26 04:41:22;;;;;;;72.90;13.20;;;2.80;99.90;;;;;;5021035;28;20166;-85
2023/04/26 04:43:48;;;;;;;73.63;14.38;;;2.90;99.90;;;;;;5023862;28;20186;-85
2023/04/26 04:46:13;;;;;;;76.50;12.90;;;2.90;99.90;;;;;;5020707;28;20181;-85
2023/04/26 04:48:41;;;;;;;74.40;12.93;;;2.90;99.90;;;;;;5026732;28;20236;-85
2023/04/26 04:51:06;;;;;;;75.95;13.48;;;2.90;99.90;;;;;;5026584;28;20162;-85
2023/04/26 04:53:32;;;;;;;71.87;13.27;;;2.90;99.90;;;;;;5023046;28;20178;-85
2023/04/26 04:55:58;;;;;;;79.60;14.05;;;3.00;99.90;;;;;;5026680;28;20432;-85
2023/04/26 04:58:24;;;;;;;74.17;12.43;;;3.00;99.90;;;;;;5027149;28;20173;-85
2023/04/26 05:00:51;;;;;;;73.20;14.00;;;3.00;99.90;;;;;;5024156;28;20176;-85
2023/04/26 05:03:17;;;;;;;72.45;13.77;;;3.10;99.90;;;;;;5106970;23;20231;-85
2023/04/26 05:05:43;;;;;;;72.38;13.00;;;3.10;99.90;;;;;;5047689;28;20189;-85
2023/04/26 05:08:08;;;;;;;74.37;14.03;;;3.20;99.90;;;;;;5047632;28;20233;-85
2023/04/26 05:10:34;;;;;;;71.40;11.50;;;3.30;99.90;;;;;;5045897;28;20197;-85
2023/04/26 05:13:00;;;;;;;75.63;14.13;;;3.40;99.90;;;;;;5046937;28;20803;-85
2023/04/26 05:15:26;;;;;;;75.73;14.20;;;3.40;99.90;;;;;;5047507;28;20272;-86
2023/04/26 05:17:53;;;;;;;72.80;12.30;;;3.50;99.90;;;;;;5047509;28;20176;-85
2023/04/26 05:20:19;;;;;;;73.38;11.05;;;3.60;99.90;;;;;;5047129;28;20172;-85
2023/04/26 05:22:54;;;;;;;73.47;12.40;;;3.70;99.90;;;;;;5047477;28;20641;-86
2023/04/26 05:25:20;;;;;;;76.38;13.85;;;3.80;99.90;;;;;;5045754;28;20560;-85
2023/04/26 05:27:48;;;;;;;77.30;12.50;;;4.00;99.90;;;;;;5045716;28;20176;-85
2023/04/26 05:30:15;;;;;;;76.47;12.27;;;4.20;99.90;;;;;;5047338;28;20168;-85
2023/04/26 05:32:41;;;;;;;82.93;14.85;;;4.20;99.90;;;;;;5049472;28;20165;-85
2023/04/26 05:35:07;;;;;;;81.40;13.52;;;4.20;99.90;;;;;;5049321;28;20200;-85
2023/04/26 05:37:34;;;;;;;78.68;12.98;;;4.30;99.90;;;;;;5047454;28;20161;-85
2023/04/26 05:40:00;;;;;;;78.72;14.30;;;4.50;99.90;;;;;;5047918;28;20322;-85
2023/04/26 05:42:26;;;;;;;71.60;12.57;;;4.50;99.90;;;;;;5046072;28;20173;-85
2023/04/26 05:44:59;;;;;;;79.43;12.60;;;4.60;99.90;;;;;;5048474;28;20211;-85
2023/04/26 05:47:25;;;;;;;82.10;12.65;;;4.60;99.90;;;;;;5048147;28;20150;-85
2023/04/26 05:49:50;;;;;;;76.15;14.10;;;4.80;99.90;;;;;;5048225;28;20196;-85
2023/04/26 05:52:16;;;;;;;75.60;13.20;;;4.90;99.90;;;;;;5050200;28;20162;-85
2023/04/26 05:54:41;;;;;;;75.67;14.17;;;4.90;99.90;;;;;;5049095;28;20184;-85
2023/04/26 05:57:07;;;;;;;73.80;13.57;;;4.90;99.90;;;;;;5049659;28;20183;-85
2023/04/26 05:59:40;;;;;;;77.60;15.63;;;5.10;99.90;;;;;;5045744;28;20161;-85
2023/04/26 06:02:06;;;;;;;74.13;15.80;;;5.20;99.90;;;;;;5047391;28;20172;-85
2023/04/26 06:04:31;;;;;;;77.90;15.97;;;5.20;99.90;;;;;;5047823;28;20185;-85
2023/04/26 06:06:57;;;;;;;78.77;16.80;;;5.20;99.90;;;;;;5046632;28;20459;-85
2023/04/26 06:09:22;;;;;;;77.97;17.17;;;5.30;99.90;;;;;;5047666;28;20162;-85
2023/04/26 06:11:48;;;;;;;77.33;19.60;;;5.30;99.90;;;;;;5048891;28;20173;-85
2023/04/26 06:14:14;;;;;;;76.50;17.47;;;5.30;99.90;;;;;;5047220;28;20181;-85
2023/04/26 06:16:39;;;;;;;84.43;15.40;;;5.40;99.90;;;;;;5045307;28;20169;-85
2023/04/26 06:19:05;;;;;;;87.57;19.83;;;5.50;99.90;;;;;;5047538;28;20253;-85
2023/04/26 06:21:31;;;;;;;84.00;18.03;;;5.60;99.90;;;;;;5047558;28;20192;-85
2023/04/26 06:23:57;;;;;;;76.63;16.20;;;5.70;99.90;;;;;;5046917;28;20423;-85
2023/04/26 06:26:22;;;;;;;80.30;15.57;;;5.80;99.90;;;;;;5047333;28;20185;-84
2023/04/26 06:28:48;;;;;;;84.10;13.43;;;5.90;99.90;;;;;;5047225;28;20533;-84
2023/04/26 06:31:14;;;;;;;75.17;13.27;;;5.90;99.90;;;;;;5044536;28;20161;-84
2023/04/26 06:33:39;;;;;;;87.83;15.17;;;6.00;99.90;;;;;;5046595;28;20181;-84
2023/04/26 06:36:06;;;;;;;78.97;14.10;;;6.00;99.90;;;;;;5045100;28;20169;-84
2023/04/26 06:38:31;;;;;;;77.95;14.48;;;6.10;99.90;;;;;;5043061;28;20165;-84
2023/04/26 06:40:57;;;;;;;73.40;12.60;;;6.20;99.90;;;;;;5042210;28;20169;-84
2023/04/26 06:43:22;;;;;;;76.90;12.70;;;6.20;99.90;;;;;;5041692;28;20295;-84
2023/04/26 06:45:48;;;;;;;79.20;12.17;;;6.30;99.90;;;;;;5042722;28;20272;-84
2023/04/26 06:48:14;;;;;;;80.43;11.97;;;6.30;99.90;;;;;;5043875;28;20229;-84
2023/04/26 06:50:40;;;;;;;73.67;11.00;;;6.30;99.90;;;;;;5042161;28;20196;-84
2023/04/26 06:53:12;;;;;;;77.40;10.60;;;6.40;99.90;;;;;;5041516;28;20188;-84
2023/04/26 06:55:37;;;;;;;77.93;10.75;;;6.70;99.90;;;;;;5040842;28;20621;-84
2023/04/26 06:58:03;;;;;;;77.77;10.83;;;6.80;94.70;;;;;;5041527;28;20173;-85
2023/04/26 07:00:32;;;;;;;75.80;9.97;;;6.70;93.30;;;;;;5040875;28;20244;-85
2023/04/26 07:03:00;;;;;;;78.90;8.15;;;6.80;94.70;;;;;;5040883;28;20191;-86
2023/04/26 07:05:26;;;;;;;74.68;8.85;;;7.00;91.90;;;;;;5041071;28;20189;-85
2023/04/26 07:07:51;;;;;;;75.27;9.23;;;7.20;85.00;;;;;;5045273;28;20636;-87
2023/04/26 07:10:17;;;;;;;73.60;8.00;;;7.20;76.70;;;;;;5039367;28;20169;-84
2023/04/26 07:12:43;;;;;;;78.20;8.20;;;7.30;74.80;;;;;;5041933;28;20205;-85
2023/04/26 07:15:09;;;;;;;82.17;8.80;;;7.40;70.60;;;;;;5041204;28;20435;-84
2023/04/26 07:17:35;;;;;;;77.10;9.07;;;7.50;72.70;;;;;;5041012;28;20628;-84
2023/04/26 07:20:00;;;;;;;73.57;9.73;;;7.60;63.40;;;;;;5041660;28;20164;-84
2023/04/26 07:22:26;;;;;;;73.37;8.30;;;7.60;49.90;;;;;;5041167;28;20168;-84
2023/04/26 07:24:52;;;;;;;72.80;7.27;;;7.50;48.30;;;;;;5041288;28;20189;-84
2023/04/26 07:27:17;;;;;;;73.20;7.13;;;7.50;42.90;;;;;;5041042;28;20161;-84
2023/04/26 07:29:58;;;;;;;77.50;7.70;;;7.60;43.20;;;;;;5041539;28;20645;-84
2023/04/26 07:32:24;;;;;;;71.88;7.82;;;7.70;42.40;;;;;;5041277;28;20150;-84
2023/04/26 07:34:50;;;;;;;72.13;6.43;;;7.80;46.80;;;;;;5041272;28;20195;-84
2023/04/26 07:37:15;;;;;;;68.93;5.87;;;7.90;27.30;;;;;;5041918;28;20157;-84
2023/04/26 07:39:41;;;;;;;72.60;6.83;;;7.90;18.10;;;;;;5040708;28;20165;-84
2023/04/26 07:42:09;;;;;;;72.90;7.00;;;8.00;28.90;;;;;;5041353;28;20169;-85
2023/04/26 07:44:35;;;;;;;75.10;7.70;;;8.10;17.50;;;;;;5041491;28;20242;-84
2023/04/26 07:47:00;;;;;;;69.40;6.20;;;8.20;16.50;;;;;;5041194;28;20212;-84
2023/04/26 07:49:26;;;;;;;76.57;6.90;;;8.30;6.00;;;;;;5041744;28;20174;-84
2023/04/26 07:51:52;;;;;;;76.43;6.70;;;8.30;13.10;;;;;;5046584;28;20165;-84
2023/04/26 07:54:17;;;;;;;73.90;5.97;;;8.50;9.90;;;;;;5046100;28;20181;-84
2023/04/26 07:56:43;;;;;;;69.80;6.40;;;8.60;1.00;;;;;;5046260;28;20252;-84
2023/04/26 07:59:08;;;;;;;75.07;7.60;;;8.50;1.00;;;;;;5041649;28;20177;-84
2023/04/26 08:01:34;;;;;;;75.67;7.90;;;8.60;1.00;;;;;;5041594;28;20196;-84
2023/04/26 08:04:00;;;;;;;72.80;8.00;;;8.60;1.00;;;;;;5042188;28;20777;-84
2023/04/26 08:06:28;;;;;;;77.10;7.93;;;8.60;1.00;;;;;;5041406;28;20189;-84
2023/04/26 08:08:53;;;;;;;73.10;7.05;;;8.60;7.90;;;;;;5041427;28;20161;-85
2023/04/26 08:11:19;;;;;;;76.87;8.07;;;8.60;1.00;;;;;;5123505;22;20253;-85
2023/04/26 08:13:45;;;;;;;75.27;8.43;;;8.80;6.30;;;;;;5017451;28;20185;-85
2023/04/26 08:16:11;;;;;;;76.83;8.30;;;8.80;1.00;;;;;;5017130;28;20400;-85
2023/04/26 08:18:37;;;;;;;70.07;7.53;;;8.90;1.30;;;;;;5017674;28;20174;-85
2023/04/26 08:21:02;;;;;;;72.53;8.00;;;8.90;1.00;;;;;;5017210;28;20405;-85
2023/04/26 08:23:36;;;;;;;75.07;8.90;;;8.90;1.00;;;;;;5019803;28;20239;-86
2023/04/26 08:26:07;;;;;;;74.18;7.93;;;8.90;1.00;;;;;;5021396;28;20437;-85
2023/04/26 08:28:34;;;;;;;73.25;7.13;;;9.00;1.00;;;;;;5020770;28;20197;-85
2023/04/26 08:31:26;;;;;;;78.85;9.45;;;9.10;1.00;;;;;;5020238;28;20173;-85
2023/04/26 08:33:52;;;;;;;74.50;7.40;;;9.00;1.00;;;;;;5019069;28;20220;-86
2023/04/26 08:36:17;;;;;;;80.50;8.20;;;9.20;1.00;;;;;;5022196;28;20166;-85
2023/04/26 08:38:43;;;;;;;73.63;7.90;;;9.30;1.00;;;;;;5020913;28;20184;-85
2023/04/26 08:41:13;;;;;;;75.53;7.93;;;9.40;1.00;;;;;;5021366;28;20174;-85
2023/04/26 08:43:39;;;;;;;69.68;6.40;;;9.40;1.00;;;;;;5022950;28;20208;-85
2023/04/26 08:46:10;;;;;;;72.07;7.00;;;9.40;1.00;;;;;;5021008;28;20194;-86
2023/04/26 08:48:37;;;;;;;75.15;8.63;;;9.50;1.00;;;;;;5020268;28;20451;-85
2023/04/26 08:51:04;;;;;;;72.93;7.50;;;9.60;1.00;;;;;;5021589;28;20221;-85
2023/04/26 08:53:33;;;;;;;71.55;7.00;;;9.60;1.00;;;;;;5020780;28;20231;-85
2023/04/26 08:56:01;;;;;;;73.65;10.13;;;9.70;1.00;;;;;;5021265;28;20189;-84
2023/04/26 08:58:27;;;;;;;73.45;8.45;;;9.80;1.00;;;;;;5019589;28;20166;-86
2023/04/26 09:01:00;;;;;;;79.53;9.07;;;9.60;1.00;;;;;;5020964;28;20170;-86
2023/04/26 09:07:02;;;;;;;74.15;8.15;;;9.60;1.00;;;;;;5012910;28;20209;-85
2023/04/26 09:09:34;;;;;;;77.78;8.52;;;9.70;1.00;;;;;;5022766;28;20161;-85
2023/04/26 09:12:02;;;;;;;77.88;7.70;;;9.80;1.00;;;;;;5020684;28;20607;-85
2023/04/26 09:14:28;;;;;;;70.72;6.50;;;10.00;1.00;;;;;;5021586;28;20661;-85
2023/04/26 09:16:54;;;;;;;71.32;7.65;;;10.10;1.00;;;;;;5019579;28;20170;-85
2023/04/26 09:19:36;;;;;;;69.77;6.30;;;10.30;1.00;;;;;;5019661;28;20227;-85
2023/04/26 09:22:02;;;;;;;70.25;6.57;;;10.40;1.00;;;;;;5019710;28;20483;-84
2023/04/26 09:24:49;;;;;;;70.28;5.50;;;10.60;1.00;;;;;;5019606;28;20200;-84
2023/04/26 09:27:15;;;;;;;72.07;5.65;;;10.70;1.00;;;;;;5019526;28;20165;-85
2023/04/26 09:29:58;;;;;;;72.72;6.63;;;10.90;1.00;;;;;;5021221;28;20209;-84
2023/04/26 09:32:25;;;;;;;71.80;6.53;;;11.00;1.00;;;;;;5019403;28;20283;-86
2023/04/26 09:34:57;;;;;;;70.78;6.65;;;11.10;1.00;;;;;;5020188;28;20181;-85
2023/04/26 09:37:23;;;;;;;70.57;6.85;;;11.00;1.00;;;;;;5021294;28;20158;-85
2023/04/26 09:39:54;;;;;;;67.60;5.70;;;11.00;1.00;;;;;;5019823;28;20173;-86
2023/04/26 09:42:23;;;;;;;73.93;6.45;;;11.00;1.00;;;;;;5019593;28;20553;-85
2023/04/26 09:44:48;;;;;;;77.50;6.55;;;11.20;1.00;;;;;;5018653;28;20292;-84
2023/04/26 09:47:16;;;;;;;71.63;5.60;;;11.20;1.00;;;;;;5019412;28;20656;-85
2023/04/26 09:49:50;;;;;;;74.28;6.28;;;11.10;1.00;;;;;;5019634;28;20169;-85
2023/04/26 09:52:19;;;;;;;73.07;6.10;;;10.90;1.00;;;;;;5019763;28;20167;-84
2023/04/26 09:54:50;;;;;;;70.40;6.65;;;10.70;1.00;;;;;;5019530;28;20240;-85
2023/04/26 09:57:18;;;;;;;72.60;6.65;;;10.70;1.00;;;;;;5019155;28;20721;-85
2023/04/26 09:59:46;;;;;;;69.95;5.85;;;10.70;1.00;;;;;;5018043;28;20197;-83
2023/04/26 10:02:22;;;;;;;73.28;5.72;;;10.80;1.00;;;;;;5017658;28;20162;-85
2023/04/26 10:04:54;;;;;;;72.75;5.57;;;10.90;1.00;;;;;;5019770;28;20186;-84
2023/04/26 10:07:22;;;;;;;70.85;5.07;;;11.00;1.00;;;;;;5019752;28;20190;-85
2023/04/26 10:09:48;;;;;;;69.70;5.03;;;11.00;1.00;;;;;;5020046;28;20169;-86
2023/04/26 10:12:24;;;;;;;71.03;5.67;;;11.00;1.00;;;;;;5019377;28;20173;-86
2023/04/26 10:14:50;;;;;;;69.50;4.85;;;11.20;1.00;;;;;;5017886;28;20975;-84
2023/04/26 10:17:18;;;;;;;73.93;5.57;;;11.60;1.00;;;;;;5019239;28;20175;-84
2023/04/26 10:19:52;;;;;;;70.47;5.40;;;11.80;1.00;;;;;;5018465;28;20166;-84
2023/04/26 10:22:28;;;;;;;68.60;5.35;;;11.80;1.00;;;;;;5018601;28;20162;-85
2023/04/26 10:24:55;;;;;;;79.35;6.03;;;11.90;1.00;;;;;;5022131;28;20181;-85
2023/04/26 10:27:42;;;;;;;66.28;4.55;;;11.80;1.00;;;;;;5019276;28;20707;-84
2023/04/26 10:30:23;;;;;;;72.72;5.30;;;11.60;1.00;;;;;;5019579;28;20158;-84
2023/04/26 10:32:55;;;;;;;68.65;5.07;;;11.50;1.00;;;;;;5020597;28;20154;-84
2023/04/26 10:35:28;;;;;;;69.35;4.90;;;11.50;1.00;;;;;;5020044;28;20534;-85
2023/04/26 10:38:05;;;;;;;68.68;5.45;;;11.80;1.00;;;;;;5018477;28;20236;-85
2023/04/26 10:40:39;;;;;;;69.22;5.80;;;12.00;1.00;;;;;;5017949;28;20185;-84
2023/04/26 10:43:13;;;;;;;73.68;5.70;;;12.30;1.00;;;;;;5019816;28;20241;-85
2023/04/26 10:45:41;;;;;;;68.88;5.50;;;12.70;1.00;;;;;;5017732;28;20307;-85
2023/04/26 10:48:18;;;;;;;76.72;5.72;;;12.90;1.00;;;;;;5020099;28;20180;-85
2023/04/26 10:51:07;;;;;;;69.32;4.90;;;13.10;1.00;;;;;;5021068;28;20645;-86
2023/04/26 10:53:47;;;;;;;85.95;5.97;;;13.00;1.00;;;;;;5019199;28;20193;-85
2023/04/26 10:56:22;;;;;;;70.35;5.25;;;13.20;1.00;;;;;;5020136;28;20166;-85
2023/04/26 10:58:48;;;;;;;71.33;5.93;;;13.40;1.00;;;;;;5018630;28;20728;-84
2023/04/26 11:01:20;;;;;;;70.23;5.73;;;13.40;1.00;;;;;;5019922;28;20876;-85
2023/04/26 11:03:58;;;;;;;75.72;6.63;;;12.80;1.00;;;;;;5018578;28;20433;-83
2023/04/26 11:06:25;;;;;;;71.38;5.55;;;12.70;1.00;;;;;;5019353;28;20284;-84
2023/04/26 11:08:52;;;;;;;68.32;5.32;;;12.70;1.00;;;;;;5018852;28;20177;-86
2023/04/26 11:11:19;;;;;;;71.97;5.50;;;12.80;1.00;;;;;;5017774;28;20453;-86
2023/04/26 11:13:47;;;;;;;77.18;6.40;;;12.90;1.00;;;;;;5017375;28;20192;-85
2023/04/26 11:16:14;;;;;;;73.10;6.77;;;13.00;1.00;;;;;;5017569;28;20637;-85
2023/04/26 11:18:45;;;;;;;74.32;6.55;;;13.00;1.00;;;;;;5016668;28;20412;-84
2023/04/26 11:21:14;;;;;;;71.82;5.00;;;13.20;1.00;;;;;;5017615;28;20166;-84
2023/04/26 11:23:40;;;;;;;75.60;5.90;;;13.30;1.00;;;;;;5017161;28;20194;-84
2023/04/26 11:26:07;;;;;;;69.50;5.63;;;13.60;1.00;;;;;;5017228;28;20450;-84
2023/04/26 11:28:37;;;;;;;71.33;6.73;;;13.90;1.00;;;;;;5018521;28;20412;-84
2023/04/26 11:31:05;;;;;;;70.27;6.13;;;14.10;1.00;;;;;;5017404;28;20403;-85
2023/04/26 11:33:33;;;;;;;71.07;7.13;;;14.20;1.00;;;;;;5019690;28;20416;-85
2023/04/26 11:35:59;;;;;;;78.75;5.35;;;14.40;1.00;;;;;;5018841;28;20407;-85
2023/04/26 11:38:27;;;;;;;74.10;7.17;;;14.60;1.00;;;;;;5018765;28;20180;-85
2023/04/26 11:40:58;;;;;;;79.43;7.10;;;14.80;1.00;;;;;;5018182;28;20460;-84
2023/04/26 11:43:38;;;;;;;73.47;6.30;;;15.20;1.00;;;;;;5016604;28;20471;-84
2023/04/26 11:46:06;;;;;;;69.17;5.70;;;15.20;1.00;;;;;;5017240;28;20448;-84
2023/04/26 11:48:42;;;;;;;71.07;5.07;;;15.20;1.00;;;;;;5016251;28;20406;-84
2023/04/26 11:51:10;;;;;;;70.37;5.80;;;15.30;1.00;;;;;;5017478;28;20588;-85
2023/04/26 11:53:40;;;;;;;70.90;4.77;;;15.40;1.00;;;;;;5016525;28;20425;-85
2023/04/26 11:56:19;;;;;;;67.97;4.30;;;15.60;1.00;;;;;;5018785;28;20409;-84
2023/04/26 11:58:49;;;;;;;69.50;4.13;;;15.60;1.00;;;;;;5021413;28;20760;-84
2023/04/26 12:01:28;;;;;;;73.47;4.93;;;15.70;1.00;;;;;;5021099;28;20436;-84
2023/04/26 12:03:56;;;;;;;69.47;4.27;;;16.10;1.00;;;;;;5022733;28;20435;-84
2023/04/26 12:06:29;;;;;;;67.50;4.33;;;16.50;1.00;;;;;;5021072;28;20992;-84
2023/04/26 12:08:56;;;;;;;69.97;4.47;;;16.60;1.00;;;;;;5022380;28;20897;-84
2023/04/26 12:11:21;;;;;;;68.77;3.87;;;16.60;1.00;;;;;;5021751;28;20438;-84
2023/04/26 12:13:47;;;;;;;73.13;5.47;;;16.50;1.00;;;;;;5020731;28;20995;-84
2023/04/26 12:16:28;;;;;;;76.73;5.43;;;16.10;1.00;;;;;;5021093;28;20170;-84
2023/04/26 12:18:57;;;;;;;73.77;4.93;;;16.20;1.00;;;;;;5021848;28;20183;-85
2023/04/26 12:21:23;;;;;;;70.20;5.27;;;15.70;1.00;;;;;;5021475;28;20402;-84
2023/04/26 12:23:49;;;;;;;71.73;4.67;;;15.20;1.00;;;;;;5020123;28;20437;-84
2023/04/26 12:26:15;;;;;;;71.80;4.80;;;14.90;1.00;;;;;;5020905;28;20955;-84
2023/04/26 12:28:41;;;;;;;67.87;4.83;;;14.80;1.00;;;;;;5021670;28;20413;-84
2023/04/26 12:31:07;;;;;;;68.97;5.30;;;14.80;1.00;;;;;;5020704;28;20170;-83
2023/04/26 12:33:33;;;;;;;73.13;5.33;;;14.60;1.00;;;;;;5019761;28;20448;-85
2023/04/26 12:36:07;;;;;;;69.07;4.70;;;14.60;1.00;;;;;;5020529;28;20992;-85
2023/04/26 12:38:32;;;;;;;67.57;4.67;;;14.50;1.00;;;;;;5019440;28;20412;-84
2023/04/26 12:40:58;;;;;;;71.53;4.90;;;14.40;1.00;;;;;;5021282;28;20403;-84
2023/04/26 12:43:25;;;;;;;69.07;4.53;;;14.40;1.00;;;;;;5020187;28;20184;-85
2023/04/26 12:45:54;;;;;;;68.90;4.40;;;14.40;1.00;;;;;;5024082;28;20185;-85
2023/04/26 12:48:20;;;;;;;71.70;4.70;;;14.60;1.00;;;;;;5022060;28;20411;-85